sensor_id;sensor_type;location;lat;lon;timestamp;temperature;humidity
3678;DHT22;1855;50.934;6.958;2023-06-04T00:02:04;15.70;40.70
3678;DHT22;1855;50.934;6.958;2023-06-04T00:04:31;15.60;40.80
3678;DHT22;1855;50.934;6.958;2023-06-04T00:06:58;15.60;41.20
3678;DHT22;1855;50.934;6.958;2023-06-04T00:09:25;15.60;41.10
3678;DHT22;1855;50.934;6.958;2023-06-04T00:11:51;15.60;41.20
3678;DHT22;1855;50.934;6.958;2023-06-04T00:14:19;15.50;41.50
3678;DHT22;1855;50.934;6.958;2023-06-04T00:16:46;15.60;41.30
3678;DHT22;1855;50.934;6.958;2023-06-04T00:19:13;15.50;41.30
3678;DHT22;1855;50.934;6.958;2023-06-04T00:21:40;15.40;41.80
3678;DHT22;1855;50.934;6.958;2023-06-04T00:24:06;15.30;42.30
3678;DHT22;1855;50.934;6.958;2023-06-04T00:26:33;15.30;42.70
3678;DHT22;1855;50.934;6.958;2023-06-04T00:29:01;15.20;42.10
3678;DHT22;1855;50.934;6.958;2023-06-04T00:31:29;15.20;42.50
3678;DHT22;1855;50.934;6.958;2023-06-04T00:33:55;15.10;42.20
3678;DHT22;1855;50.934;6.958;2023-06-04T00:36:22;15.10;42.20
3678;DHT22;1855;50.934;6.958;2023-06-04T00:38:49;15.00;42.60
3678;DHT22;1855;50.934;6.958;2023-06-04T00:41:15;15.00;42.40
3678;DHT22;1855;50.934;6.958;2023-06-04T00:43:43;15.00;42.80
3678;DHT22;1855;50.934;6.958;2023-06-04T00:46:11;14.90;42.80
3678;DHT22;1855;50.934;6.958;2023-06-04T00:48:44;14.80;42.90
3678;DHT22;1855;50.934;6.958;2023-06-04T00:51:11;14.80;43.00
3678;DHT22;1855;50.934;6.958;2023-06-04T00:53:38;14.70;43.20
3678;DHT22;1855;50.934;6.958;2023-06-04T00:56:05;14.70;43.80
3678;DHT22;1855;50.934;6.958;2023-06-04T00:58:37;14.60;43.50
3678;DHT22;1855;50.934;6.958;2023-06-04T01:01:05;14.50;43.50
3678;DHT22;1855;50.934;6.958;2023-06-04T01:03:36;14.50;43.80
3678;DHT22;1855;50.934;6.958;2023-06-04T01:06:13;14.50;44.30
3678;DHT22;1855;50.934;6.958;2023-06-04T01:08:46;14.40;44.30
3678;DHT22;1855;50.934;6.958;2023-06-04T01:11:14;14.40;44.50
3678;DHT22;1855;50.934;6.958;2023-06-04T01:13:41;14.30;44.80
3678;DHT22;1855;50.934;6.958;2023-06-04T01:16:08;14.30;44.80
3678;DHT22;1855;50.934;6.958;2023-06-04T01:18:38;14.30;44.70
3678;DHT22;1855;50.934;6.958;2023-06-04T01:21:09;14.20;45.10
3678;DHT22;1855;50.934;6.958;2023-06-04T01:23:44;14.20;45.40
3678;DHT22;1855;50.934;6.958;2023-06-04T01:26:12;14.20;45.50
3678;DHT22;1855;50.934;6.958;2023-06-04T01:28:39;14.20;45.70
3678;DHT22;1855;50.934;6.958;2023-06-04T01:31:07;14.10;45.50
3678;DHT22;1855;50.934;6.958;2023-06-04T01:33:35;14.10;45.70
3678;DHT22;1855;50.934;6.958;2023-06-04T01:36:02;14.00;45.80
3678;DHT22;1855;50.934;6.958;2023-06-04T01:38:30;14.00;46.00
3678;DHT22;1855;50.934;6.958;2023-06-04T01:40:56;14.00;45.80
3678;DHT22;1855;50.934;6.958;2023-06-04T01:43:27;14.00;46.10
3678;DHT22;1855;50.934;6.958;2023-06-04T01:45:54;13.90;46.10
3678;DHT22;1855;50.934;6.958;2023-06-04T01:48:22;13.90;46.20
3678;DHT22;1855;50.934;6.958;2023-06-04T01:50:48;13.80;46.20
3678;DHT22;1855;50.934;6.958;2023-06-04T01:53:15;13.80;46.40
3678;DHT22;1855;50.934;6.958;2023-06-04T01:55:43;13.70;47.20
3678;DHT22;1855;50.934;6.958;2023-06-04T01:58:10;13.70;46.80
3678;DHT22;1855;50.934;6.958;2023-06-04T02:00:37;13.80;46.80
3678;DHT22;1855;50.934;6.958;2023-06-04T02:03:03;13.70;46.80
3678;DHT22;1855;50.934;6.958;2023-06-04T02:05:31;13.70;46.80
3678;DHT22;1855;50.934;6.958;2023-06-04T02:07:58;13.70;47.10
3678;DHT22;1855;50.934;6.958;2023-06-04T02:10:27;13.60;47.10
3678;DHT22;1855;50.934;6.958;2023-06-04T02:12:57;13.50;47.60
3678;DHT22;1855;50.934;6.958;2023-06-04T02:15:24;13.50;47.50
3678;DHT22;1855;50.934;6.958;2023-06-04T02:17:57;13.50;47.70
3678;DHT22;1855;50.934;6.958;2023-06-04T02:20:25;13.50;47.70
3678;DHT22;1855;50.934;6.958;2023-06-04T02:22:53;13.50;48.40
3678;DHT22;1855;50.934;6.958;2023-06-04T02:25:19;13.50;47.90
3678;DHT22;1855;50.934;6.958;2023-06-04T02:27:46;13.50;48.20
3678;DHT22;1855;50.934;6.958;2023-06-04T02:30:15;13.50;48.60
3678;DHT22;1855;50.934;6.958;2023-06-04T02:32:42;13.50;49.30
3678;DHT22;1855;50.934;6.958;2023-06-04T02:35:10;13.50;48.80
3678;DHT22;1855;50.934;6.958;2023-06-04T02:37:36;13.50;49.10
3678;DHT22;1855;50.934;6.958;2023-06-04T02:40:04;13.50;49.50
3678;DHT22;1855;50.934;6.958;2023-06-04T02:42:32;13.50;49.00
3678;DHT22;1855;50.934;6.958;2023-06-04T02:44:58;13.60;49.50
3678;DHT22;1855;50.934;6.958;2023-06-04T02:47:27;13.50;48.90
3678;DHT22;1855;50.934;6.958;2023-06-04T02:49:53;13.50;49.50
3678;DHT22;1855;50.934;6.958;2023-06-04T02:52:20;13.40;50.00
3678;DHT22;1855;50.934;6.958;2023-06-04T02:54:48;13.40;50.00
3678;DHT22;1855;50.934;6.958;2023-06-04T02:57:14;13.30;50.00
3678;DHT22;1855;50.934;6.958;2023-06-04T02:59:41;13.30;50.70
3678;DHT22;1855;50.934;6.958;2023-06-04T03:02:08;13.30;51.00
3678;DHT22;1855;50.934;6.958;2023-06-04T03:04:37;13.30;50.20
3678;DHT22;1855;50.934;6.958;2023-06-04T03:07:05;13.30;50.40
3678;DHT22;1855;50.934;6.958;2023-06-04T03:09:33;13.20;50.80
3678;DHT22;1855;50.934;6.958;2023-06-04T03:12:00;13.20;50.70
3678;DHT22;1855;50.934;6.958;2023-06-04T03:14:27;13.20;50.60
3678;DHT22;1855;50.934;6.958;2023-06-04T03:16:58;13.20;51.20
3678;DHT22;1855;50.934;6.958;2023-06-04T03:19:26;13.10;51.40
3678;DHT22;1855;50.934;6.958;2023-06-04T03:21:54;13.10;52.00
3678;DHT22;1855;50.934;6.958;2023-06-04T03:24:22;13.10;52.40
3678;DHT22;1855;50.934;6.958;2023-06-04T03:26:49;13.00;52.50
3678;DHT22;1855;50.934;6.958;2023-06-04T03:29:15;13.00;53.00
3678;DHT22;1855;50.934;6.958;2023-06-04T03:31:44;13.00;53.60
3678;DHT22;1855;50.934;6.958;2023-06-04T03:34:11;13.00;53.70
3678;DHT22;1855;50.934;6.958;2023-06-04T03:36:38;12.90;55.00
3678;DHT22;1855;50.934;6.958;2023-06-04T03:39:06;13.00;55.70
3678;DHT22;1855;50.934;6.958;2023-06-04T03:41:33;13.00;55.80
3678;DHT22;1855;50.934;6.958;2023-06-04T03:44:00;13.10;56.60
3678;DHT22;1855;50.934;6.958;2023-06-04T03:46:26;13.10;56.90
3678;DHT22;1855;50.934;6.958;2023-06-04T03:48:57;13.10;56.40
3678;DHT22;1855;50.934;6.958;2023-06-04T03:51:23;13.20;56.40
3678;DHT22;1855;50.934;6.958;2023-06-04T03:53:50;13.10;56.40
3678;DHT22;1855;50.934;6.958;2023-06-04T03:56:18;13.10;55.80
3678;DHT22;1855;50.934;6.958;2023-06-04T03:58:45;13.10;55.60
3678;DHT22;1855;50.934;6.958;2023-06-04T04:01:12;13.10;55.60
3678;DHT22;1855;50.934;6.958;2023-06-04T04:03:38;13.10;55.20
3678;DHT22;1855;50.934;6.958;2023-06-04T04:06:05;13.10;55.20
3678;DHT22;1855;50.934;6.958;2023-06-04T04:08:32;13.10;55.70
3678;DHT22;1855;50.934;6.958;2023-06-04T04:10:59;13.10;56.00
3678;DHT22;1855;50.934;6.958;2023-06-04T04:13:28;13.10;55.60
3678;DHT22;1855;50.934;6.958;2023-06-04T04:15:54;13.10;56.10
3678;DHT22;1855;50.934;6.958;2023-06-04T04:18:22;13.20;56.10
3678;DHT22;1855;50.934;6.958;2023-06-04T04:20:48;13.20;56.10
3678;DHT22;1855;50.934;6.958;2023-06-04T04:23:15;13.20;56.30
3678;DHT22;1855;50.934;6.958;2023-06-04T04:25:42;13.20;56.10
3678;DHT22;1855;50.934;6.958;2023-06-04T04:28:10;13.20;55.50
3678;DHT22;1855;50.934;6.958;2023-06-04T04:30:39;13.20;54.50
3678;DHT22;1855;50.934;6.958;2023-06-04T04:33:06;13.30;53.60
3678;DHT22;1855;50.934;6.958;2023-06-04T04:35:33;13.30;53.10
3678;DHT22;1855;50.934;6.958;2023-06-04T04:38:00;13.30;53.00
3678;DHT22;1855;50.934;6.958;2023-06-04T04:40:28;13.30;53.20
3678;DHT22;1855;50.934;6.958;2023-06-04T04:42:55;13.30;53.80
3678;DHT22;1855;50.934;6.958;2023-06-04T04:45:22;13.30;53.80
3678;DHT22;1855;50.934;6.958;2023-06-04T04:47:50;13.30;53.50
3678;DHT22;1855;50.934;6.958;2023-06-04T04:50:17;13.30;52.50
3678;DHT22;1855;50.934;6.958;2023-06-04T04:52:43;13.30;53.10
3678;DHT22;1855;50.934;6.958;2023-06-04T04:55:10;13.30;52.60
3678;DHT22;1855;50.934;6.958;2023-06-04T04:57:38;13.30;53.10
3678;DHT22;1855;50.934;6.958;2023-06-04T05:00:06;13.30;53.10
3678;DHT22;1855;50.934;6.958;2023-06-04T05:02:34;13.40;52.70
3678;DHT22;1855;50.934;6.958;2023-06-04T05:05:03;13.40;52.90
3678;DHT22;1855;50.934;6.958;2023-06-04T05:07:30;13.50;52.70
3678;DHT22;1855;50.934;6.958;2023-06-04T05:09:56;13.50;52.40
3678;DHT22;1855;50.934;6.958;2023-06-04T05:12:25;13.50;53.20
3678;DHT22;1855;50.934;6.958;2023-06-04T05:14:51;13.50;53.40
3678;DHT22;1855;50.934;6.958;2023-06-04T05:17:18;13.50;53.30
3678;DHT22;1855;50.934;6.958;2023-06-04T05:19:47;13.60;53.20
3678;DHT22;1855;50.934;6.958;2023-06-04T05:22:15;13.70;53.60
3678;DHT22;1855;50.934;6.958;2023-06-04T05:24:44;13.70;54.30
3678;DHT22;1855;50.934;6.958;2023-06-04T05:27:10;13.70;54.20
3678;DHT22;1855;50.934;6.958;2023-06-04T05:29:37;13.70;54.10
3678;DHT22;1855;50.934;6.958;2023-06-04T05:32:04;13.80;54.40
3678;DHT22;1855;50.934;6.958;2023-06-04T05:34:31;13.80;54.10
3678;DHT22;1855;50.934;6.958;2023-06-04T05:36:58;13.80;54.20
3678;DHT22;1855;50.934;6.958;2023-06-04T05:39:26;13.80;54.10
3678;DHT22;1855;50.934;6.958;2023-06-04T05:41:52;13.80;53.70
3678;DHT22;1855;50.934;6.958;2023-06-04T05:44:19;13.90;54.80
3678;DHT22;1855;50.934;6.958;2023-06-04T05:46:46;13.90;54.30
3678;DHT22;1855;50.934;6.958;2023-06-04T05:49:13;14.00;54.40
3678;DHT22;1855;50.934;6.958;2023-06-04T05:51:39;14.00;54.90
3678;DHT22;1855;50.934;6.958;2023-06-04T05:54:06;14.10;54.40
3678;DHT22;1855;50.934;6.958;2023-06-04T05:56:34;14.20;53.00
3678;DHT22;1855;50.934;6.958;2023-06-04T05:59:01;14.20;52.40
3678;DHT22;1855;50.934;6.958;2023-06-04T06:01:27;14.20;52.70
3678;DHT22;1855;50.934;6.958;2023-06-04T06:03:55;14.30;53.10
3678;DHT22;1855;50.934;6.958;2023-06-04T06:06:21;14.30;52.30
3678;DHT22;1855;50.934;6.958;2023-06-04T06:08:48;14.40;51.70
3678;DHT22;1855;50.934;6.958;2023-06-04T06:11:16;14.40;51.50
3678;DHT22;1855;50.934;6.958;2023-06-04T06:13:44;14.50;50.90
3678;DHT22;1855;50.934;6.958;2023-06-04T06:16:11;14.60;50.90
3678;DHT22;1855;50.934;6.958;2023-06-04T06:18:38;14.60;50.60
3678;DHT22;1855;50.934;6.958;2023-06-04T06:21:05;14.80;49.30
3678;DHT22;1855;50.934;6.958;2023-06-04T06:23:31;14.80;49.10
3678;DHT22;1855;50.934;6.958;2023-06-04T06:25:58;14.90;49.10
3678;DHT22;1855;50.934;6.958;2023-06-04T06:28:27;15.00;48.70
3678;DHT22;1855;50.934;6.958;2023-06-04T06:30:55;15.10;49.00
3678;DHT22;1855;50.934;6.958;2023-06-04T06:33:22;15.20;48.80
3678;DHT22;1855;50.934;6.958;2023-06-04T06:35:49;15.30;48.60
3678;DHT22;1855;50.934;6.958;2023-06-04T06:38:16;15.30;48.40
3678;DHT22;1855;50.934;6.958;2023-06-04T06:40:42;15.50;48.10
3678;DHT22;1855;50.934;6.958;2023-06-04T06:43:09;15.60;46.70
3678;DHT22;1855;50.934;6.958;2023-06-04T06:45:36;15.70;45.90
3678;DHT22;1855;50.934;6.958;2023-06-04T06:48:05;15.70;46.40
3678;DHT22;1855;50.934;6.958;2023-06-04T06:50:31;15.80;46.80
3678;DHT22;1855;50.934;6.958;2023-06-04T06:53:00;15.90;46.50
3678;DHT22;1855;50.934;6.958;2023-06-04T06:55:27;16.10;46.10
3678;DHT22;1855;50.934;6.958;2023-06-04T06:57:54;16.20;45.90
3678;DHT22;1855;50.934;6.958;2023-06-04T07:00:21;16.40;45.50
3678;DHT22;1855;50.934;6.958;2023-06-04T07:02:48;16.50;44.80
3678;DHT22;1855;50.934;6.958;2023-06-04T07:05:16;16.70;44.00
3678;DHT22;1855;50.934;6.958;2023-06-04T07:07:44;16.90;42.80
3678;DHT22;1855;50.934;6.958;2023-06-04T07:10:12;17.00;43.20
3678;DHT22;1855;50.934;6.958;2023-06-04T07:12:39;17.10;42.20
3678;DHT22;1855;50.934;6.958;2023-06-04T07:15:06;17.20;42.40
3678;DHT22;1855;50.934;6.958;2023-06-04T07:17:33;17.40;42.00
3678;DHT22;1855;50.934;6.958;2023-06-04T07:20:00;17.60;42.00
3678;DHT22;1855;50.934;6.958;2023-06-04T07:22:28;17.80;41.00
3678;DHT22;1855;50.934;6.958;2023-06-04T07:24:55;18.00;40.50
3678;DHT22;1855;50.934;6.958;2023-06-04T07:27:22;18.20;40.30
3678;DHT22;1855;50.934;6.958;2023-06-04T07:29:48;18.40;40.30
3678;DHT22;1855;50.934;6.958;2023-06-04T07:32:15;18.60;39.70
3678;DHT22;1855;50.934;6.958;2023-06-04T07:34:42;18.80;39.00
3678;DHT22;1855;50.934;6.958;2023-06-04T07:37:08;19.00;38.70
3678;DHT22;1855;50.934;6.958;2023-06-04T07:39:37;19.30;38.60
3678;DHT22;1855;50.934;6.958;2023-06-04T07:42:05;19.50;38.20
3678;DHT22;1855;50.934;6.958;2023-06-04T07:44:32;19.80;37.50
3678;DHT22;1855;50.934;6.958;2023-06-04T07:46:59;20.00;37.20
3678;DHT22;1855;50.934;6.958;2023-06-04T07:49:26;20.10;36.60
3678;DHT22;1855;50.934;6.958;2023-06-04T07:51:52;20.30;35.90
3678;DHT22;1855;50.934;6.958;2023-06-04T07:54:19;20.50;36.30
3678;DHT22;1855;50.934;6.958;2023-06-04T07:56:47;20.60;35.70
3678;DHT22;1855;50.934;6.958;2023-06-04T07:59:14;20.80;35.30
3678;DHT22;1855;50.934;6.958;2023-06-04T08:01:41;21.00;35.20
3678;DHT22;1855;50.934;6.958;2023-06-04T08:04:07;21.20;35.20
3678;DHT22;1855;50.934;6.958;2023-06-04T08:06:34;21.40;34.50
3678;DHT22;1855;50.934;6.958;2023-06-04T08:09:01;21.60;34.20
3678;DHT22;1855;50.934;6.958;2023-06-04T08:11:28;21.80;34.20
3678;DHT22;1855;50.934;6.958;2023-06-04T08:13:56;21.90;33.20
3678;DHT22;1855;50.934;6.958;2023-06-04T08:16:22;22.10;33.00
3678;DHT22;1855;50.934;6.958;2023-06-04T08:18:49;22.30;33.30
3678;DHT22;1855;50.934;6.958;2023-06-04T08:21:25;22.40;32.40
3678;DHT22;1855;50.934;6.958;2023-06-04T08:23:52;22.60;31.60
3678;DHT22;1855;50.934;6.958;2023-06-04T08:26:18;22.70;31.90
3678;DHT22;1855;50.934;6.958;2023-06-04T08:28:47;22.90;31.90
3678;DHT22;1855;50.934;6.958;2023-06-04T08:31:15;23.00;31.60
3678;DHT22;1855;50.934;6.958;2023-06-04T08:33:42;23.10;31.20
3678;DHT22;1855;50.934;6.958;2023-06-04T08:36:09;23.20;30.60
3678;DHT22;1855;50.934;6.958;2023-06-04T08:38:36;23.40;30.20
3678;DHT22;1855;50.934;6.958;2023-06-04T08:41:08;23.60;30.40
3678;DHT22;1855;50.934;6.958;2023-06-04T08:43:37;23.70;30.00
3678;DHT22;1855;50.934;6.958;2023-06-04T08:46:05;23.80;28.40
3678;DHT22;1855;50.934;6.958;2023-06-04T08:48:36;23.80;28.30
3678;DHT22;1855;50.934;6.958;2023-06-04T08:51:06;24.10;29.70
3678;DHT22;1855;50.934;6.958;2023-06-04T08:53:34;24.10;28.00
3678;DHT22;1855;50.934;6.958;2023-06-04T08:56:01;24.20;27.50
3678;DHT22;1855;50.934;6.958;2023-06-04T08:58:31;24.30;28.30
3678;DHT22;1855;50.934;6.958;2023-06-04T09:00:58;24.30;28.20
3678;DHT22;1855;50.934;6.958;2023-06-04T09:03:26;24.50;26.30
3678;DHT22;1855;50.934;6.958;2023-06-04T09:05:54;24.60;26.40
3678;DHT22;1855;50.934;6.958;2023-06-04T09:08:23;24.80;27.30
3678;DHT22;1855;50.934;6.958;2023-06-04T09:10:53;24.90;27.70
3678;DHT22;1855;50.934;6.958;2023-06-04T09:13:22;25.00;27.30
3678;DHT22;1855;50.934;6.958;2023-06-04T09:15:58;25.00;28.20
3678;DHT22;1855;50.934;6.958;2023-06-04T09:18:25;25.10;26.50
3678;DHT22;1855;50.934;6.958;2023-06-04T09:21:02;25.30;24.60
3678;DHT22;1855;50.934;6.958;2023-06-04T09:23:28;25.40;24.00
3678;DHT22;1855;50.934;6.958;2023-06-04T09:25:56;25.50;25.70
3678;DHT22;1855;50.934;6.958;2023-06-04T09:28:22;25.60;25.90
3678;DHT22;1855;50.934;6.958;2023-06-04T09:30:52;25.60;26.50
3678;DHT22;1855;50.934;6.958;2023-06-04T09:33:19;25.60;26.20
3678;DHT22;1855;50.934;6.958;2023-06-04T09:35:53;25.60;25.60
3678;DHT22;1855;50.934;6.958;2023-06-04T09:38:22;25.60;26.60
3678;DHT22;1855;50.934;6.958;2023-06-04T09:40:49;25.60;25.70
3678;DHT22;1855;50.934;6.958;2023-06-04T09:43:21;25.60;26.10
3678;DHT22;1855;50.934;6.958;2023-06-04T09:45:49;25.70;23.80
3678;DHT22;1855;50.934;6.958;2023-06-04T09:48:19;25.90;24.40
3678;DHT22;1855;50.934;6.958;2023-06-04T09:50:46;25.80;23.30
3678;DHT22;1855;50.934;6.958;2023-06-04T09:53:14;25.80;23.20
3678;DHT22;1855;50.934;6.958;2023-06-04T09:55:42;25.80;25.30
3678;DHT22;1855;50.934;6.958;2023-06-04T09:58:10;25.80;25.30
3678;DHT22;1855;50.934;6.958;2023-06-04T10:00:37;26.00;23.80
3678;DHT22;1855;50.934;6.958;2023-06-04T10:03:05;26.10;25.10
3678;DHT22;1855;50.934;6.958;2023-06-04T10:05:33;26.10;24.80
3678;DHT22;1855;50.934;6.958;2023-06-04T10:08:03;26.20;23.30
3678;DHT22;1855;50.934;6.958;2023-06-04T10:10:34;26.30;24.30
3678;DHT22;1855;50.934;6.958;2023-06-04T10:13:05;26.30;24.10
3678;DHT22;1855;50.934;6.958;2023-06-04T10:15:35;26.30;23.10
3678;DHT22;1855;50.934;6.958;2023-06-04T10:18:02;26.40;23.50
3678;DHT22;1855;50.934;6.958;2023-06-04T10:20:30;26.70;23.70
3678;DHT22;1855;50.934;6.958;2023-06-04T10:22:58;26.70;24.70
3678;DHT22;1855;50.934;6.958;2023-06-04T10:25:26;26.70;22.70
3678;DHT22;1855;50.934;6.958;2023-06-04T10:27:53;26.90;22.70
3678;DHT22;1855;50.934;6.958;2023-06-04T10:30:21;26.90;24.00
3678;DHT22;1855;50.934;6.958;2023-06-04T10:32:48;26.80;24.40
3678;DHT22;1855;50.934;6.958;2023-06-04T10:35:15;26.80;23.50
3678;DHT22;1855;50.934;6.958;2023-06-04T10:37:41;26.80;24.20
3678;DHT22;1855;50.934;6.958;2023-06-04T10:40:09;26.80;24.10
3678;DHT22;1855;50.934;6.958;2023-06-04T10:42:40;26.90;24.20
3678;DHT22;1855;50.934;6.958;2023-06-04T10:45:08;27.00;24.30
3678;DHT22;1855;50.934;6.958;2023-06-04T10:47:36;27.00;23.70
3678;DHT22;1855;50.934;6.958;2023-06-04T10:50:08;27.10;23.60
3678;DHT22;1855;50.934;6.958;2023-06-04T10:52:35;27.10;24.10
3678;DHT22;1855;50.934;6.958;2023-06-04T10:55:03;27.20;23.70
3678;DHT22;1855;50.934;6.958;2023-06-04T10:57:31;27.40;21.90
3678;DHT22;1855;50.934;6.958;2023-06-04T11:00:00;27.50;21.80
3678;DHT22;1855;50.934;6.958;2023-06-04T11:02:29;27.70;22.30
3678;DHT22;1855;50.934;6.958;2023-06-04T11:05:00;27.80;23.70
3678;DHT22;1855;50.934;6.958;2023-06-04T11:07:28;27.90;23.80
3678;DHT22;1855;50.934;6.958;2023-06-04T11:09:55;27.90;23.20
3678;DHT22;1855;50.934;6.958;2023-06-04T11:12:22;27.90;22.40
3678;DHT22;1855;50.934;6.958;2023-06-04T11:14:55;27.90;22.50
3678;DHT22;1855;50.934;6.958;2023-06-04T11:17:22;27.80;22.70
3678;DHT22;1855;50.934;6.958;2023-06-04T11:19:49;27.70;22.90
3678;DHT22;1855;50.934;6.958;2023-06-04T11:22:17;27.70;22.50
3678;DHT22;1855;50.934;6.958;2023-06-04T11:24:44;27.80;21.70
3678;DHT22;1855;50.934;6.958;2023-06-04T11:27:11;28.10;22.40
3678;DHT22;1855;50.934;6.958;2023-06-04T11:29:38;28.10;21.50
3678;DHT22;1855;50.934;6.958;2023-06-04T11:32:05;28.30;22.70
3678;DHT22;1855;50.934;6.958;2023-06-04T11:34:32;28.30;22.20
3678;DHT22;1855;50.934;6.958;2023-06-04T11:37:08;28.20;22.70
3678;DHT22;1855;50.934;6.958;2023-06-04T11:39:37;28.10;22.10
3678;DHT22;1855;50.934;6.958;2023-06-04T11:42:05;28.00;22.70
3678;DHT22;1855;50.934;6.958;2023-06-04T11:44:32;28.00;22.70
3678;DHT22;1855;50.934;6.958;2023-06-04T11:47:00;28.10;23.00
3678;DHT22;1855;50.934;6.958;2023-06-04T11:49:27;28.30;22.80
3678;DHT22;1855;50.934;6.958;2023-06-04T11:51:54;28.40;22.40
3678;DHT22;1855;50.934;6.958;2023-06-04T11:54:21;28.40;21.90
3678;DHT22;1855;50.934;6.958;2023-06-04T11:56:51;28.10;21.80
3678;DHT22;1855;50.934;6.958;2023-06-04T11:59:18;28.00;22.10
3678;DHT22;1855;50.934;6.958;2023-06-04T12:01:46;28.00;22.00
3678;DHT22;1855;50.934;6.958;2023-06-04T12:04:13;28.10;22.40
3678;DHT22;1855;50.934;6.958;2023-06-04T12:06:50;28.20;22.50
3678;DHT22;1855;50.934;6.958;2023-06-04T12:09:20;28.30;22.60
3678;DHT22;1855;50.934;6.958;2023-06-04T12:11:47;28.30;22.30
3678;DHT22;1855;50.934;6.958;2023-06-04T12:14:17;28.30;22.30
3678;DHT22;1855;50.934;6.958;2023-06-04T12:16:54;28.40;22.60
3678;DHT22;1855;50.934;6.958;2023-06-04T12:19:21;28.60;22.40
3678;DHT22;1855;50.934;6.958;2023-06-04T12:21:59;28.60;21.90
3678;DHT22;1855;50.934;6.958;2023-06-04T12:24:27;28.50;22.00
3678;DHT22;1855;50.934;6.958;2023-06-04T12:27:01;28.60;22.30
3678;DHT22;1855;50.934;6.958;2023-06-04T12:29:30;28.40;22.40
3678;DHT22;1855;50.934;6.958;2023-06-04T12:32:04;28.30;22.30
3678;DHT22;1855;50.934;6.958;2023-06-04T12:34:33;28.30;22.50
3678;DHT22;1855;50.934;6.958;2023-06-04T12:37:00;28.50;22.50
3678;DHT22;1855;50.934;6.958;2023-06-04T12:39:28;28.70;21.80
3678;DHT22;1855;50.934;6.958;2023-06-04T12:41:55;29.10;21.70
3678;DHT22;1855;50.934;6.958;2023-06-04T12:44:22;29.70;21.70
3678;DHT22;1855;50.934;6.958;2023-06-04T12:46:50;30.30;20.60
3678;DHT22;1855;50.934;6.958;2023-06-04T12:49:17;31.10;21.80
3678;DHT22;1855;50.934;6.958;2023-06-04T12:51:44;31.40;21.10
3678;DHT22;1855;50.934;6.958;2023-06-04T12:54:10;31.80;20.30
3678;DHT22;1855;50.934;6.958;2023-06-04T12:56:38;32.20;19.40
3678;DHT22;1855;50.934;6.958;2023-06-04T12:59:05;32.80;20.70
3678;DHT22;1855;50.934;6.958;2023-06-04T13:01:32;33.00;20.50
3678;DHT22;1855;50.934;6.958;2023-06-04T13:04:00;33.00;20.00
3678;DHT22;1855;50.934;6.958;2023-06-04T13:06:27;32.70;20.00
3678;DHT22;1855;50.934;6.958;2023-06-04T13:08:53;32.30;20.00
3678;DHT22;1855;50.934;6.958;2023-06-04T13:11:20;31.80;20.10
3678;DHT22;1855;50.934;6.958;2023-06-04T13:13:48;31.40;19.90
3678;DHT22;1855;50.934;6.958;2023-06-04T13:16:15;31.20;19.10
3678;DHT22;1855;50.934;6.958;2023-06-04T13:18:41;31.00;19.80
3678;DHT22;1855;50.934;6.958;2023-06-04T13:21:09;30.90;20.40
3678;DHT22;1855;50.934;6.958;2023-06-04T13:23:36;30.80;20.00
3678;DHT22;1855;50.934;6.958;2023-06-04T13:26:03;30.70;19.10
3678;DHT22;1855;50.934;6.958;2023-06-04T13:28:30;30.60;19.20
3678;DHT22;1855;50.934;6.958;2023-06-04T13:30:57;30.30;21.60
3678;DHT22;1855;50.934;6.958;2023-06-04T13:33:23;30.10;21.40
3678;DHT22;1855;50.934;6.958;2023-06-04T13:35:50;30.00;21.60
3678;DHT22;1855;50.934;6.958;2023-06-04T13:38:18;29.90;21.80
3678;DHT22;1855;50.934;6.958;2023-06-04T13:40:45;29.90;20.80
3678;DHT22;1855;50.934;6.958;2023-06-04T13:43:12;29.90;20.90
3678;DHT22;1855;50.934;6.958;2023-06-04T13:45:39;29.70;21.70
3678;DHT22;1855;50.934;6.958;2023-06-04T13:48:06;29.40;21.50
3678;DHT22;1855;50.934;6.958;2023-06-04T13:50:33;29.20;21.60
3678;DHT22;1855;50.934;6.958;2023-06-04T13:53:00;29.00;22.40
3678;DHT22;1855;50.934;6.958;2023-06-04T13:55:29;28.80;21.40
3678;DHT22;1855;50.934;6.958;2023-06-04T13:57:56;28.90;22.10
3678;DHT22;1855;50.934;6.958;2023-06-04T14:00:22;28.90;22.20
3678;DHT22;1855;50.934;6.958;2023-06-04T14:02:49;28.90;22.10
3678;DHT22;1855;50.934;6.958;2023-06-04T14:05:16;28.80;22.20
3678;DHT22;1855;50.934;6.958;2023-06-04T14:07:43;28.80;22.50
3678;DHT22;1855;50.934;6.958;2023-06-04T14:10:11;28.80;22.40
3678;DHT22;1855;50.934;6.958;2023-06-04T14:12:39;28.70;22.40
3678;DHT22;1855;50.934;6.958;2023-06-04T14:15:07;28.70;22.30
3678;DHT22;1855;50.934;6.958;2023-06-04T14:17:34;28.80;22.90
3678;DHT22;1855;50.934;6.958;2023-06-04T14:20:02;28.70;22.90
3678;DHT22;1855;50.934;6.958;2023-06-04T14:22:32;28.60;23.30
3678;DHT22;1855;50.934;6.958;2023-06-04T14:24:59;28.60;23.60
3678;DHT22;1855;50.934;6.958;2023-06-04T14:27:26;28.60;23.70
3678;DHT22;1855;50.934;6.958;2023-06-04T14:29:55;28.50;23.50
3678;DHT22;1855;50.934;6.958;2023-06-04T14:32:21;28.50;23.60
3678;DHT22;1855;50.934;6.958;2023-06-04T14:34:49;28.30;24.40
3678;DHT22;1855;50.934;6.958;2023-06-04T14:37:15;28.30;23.80
3678;DHT22;1855;50.934;6.958;2023-06-04T14:39:42;28.20;24.00
3678;DHT22;1855;50.934;6.958;2023-06-04T14:42:09;28.20;24.00
3678;DHT22;1855;50.934;6.958;2023-06-04T14:44:36;28.20;24.10
3678;DHT22;1855;50.934;6.958;2023-06-04T14:47:04;28.30;24.10
3678;DHT22;1855;50.934;6.958;2023-06-04T14:49:31;28.40;24.20
3678;DHT22;1855;50.934;6.958;2023-06-04T14:51:58;28.40;24.20
3678;DHT22;1855;50.934;6.958;2023-06-04T14:54:25;28.40;24.30
3678;DHT22;1855;50.934;6.958;2023-06-04T14:56:52;28.40;24.40
3678;DHT22;1855;50.934;6.958;2023-06-04T14:59:19;28.30;24.30
3678;DHT22;1855;50.934;6.958;2023-06-04T15:01:46;28.40;24.40
3678;DHT22;1855;50.934;6.958;2023-06-04T15:04:14;28.30;24.50
3678;DHT22;1855;50.934;6.958;2023-06-04T15:06:40;28.40;24.50
3678;DHT22;1855;50.934;6.958;2023-06-04T15:09:07;28.40;24.50
3678;DHT22;1855;50.934;6.958;2023-06-04T15:11:34;28.30;24.50
3678;DHT22;1855;50.934;6.958;2023-06-04T15:14:01;28.30;24.30
3678;DHT22;1855;50.934;6.958;2023-06-04T15:16:28;28.30;24.70
3678;DHT22;1855;50.934;6.958;2023-06-04T15:18:55;28.10;24.30
3678;DHT22;1855;50.934;6.958;2023-06-04T15:21:23;28.00;24.50
3678;DHT22;1855;50.934;6.958;2023-06-04T15:23:50;27.90;24.60
3678;DHT22;1855;50.934;6.958;2023-06-04T15:26:17;27.80;24.90
3678;DHT22;1855;50.934;6.958;2023-06-04T15:28:44;27.80;25.10
3678;DHT22;1855;50.934;6.958;2023-06-04T15:31:11;27.70;25.50
3678;DHT22;1855;50.934;6.958;2023-06-04T15:33:37;27.60;26.20
3678;DHT22;1855;50.934;6.958;2023-06-04T15:36:04;27.60;25.20
3678;DHT22;1855;50.934;6.958;2023-06-04T15:38:33;27.50;25.30
3678;DHT22;1855;50.934;6.958;2023-06-04T15:41:00;27.50;25.30
3678;DHT22;1855;50.934;6.958;2023-06-04T15:43:27;27.50;25.50
3678;DHT22;1855;50.934;6.958;2023-06-04T15:45:53;27.80;26.70
3678;DHT22;1855;50.934;6.958;2023-06-04T15:48:20;28.30;25.60
3678;DHT22;1855;50.934;6.958;2023-06-04T15:50:47;29.10;25.30
3678;DHT22;1855;50.934;6.958;2023-06-04T15:53:14;29.80;24.30
3678;DHT22;1855;50.934;6.958;2023-06-04T15:55:43;30.40;22.10
3678;DHT22;1855;50.934;6.958;2023-06-04T15:58:09;30.90;21.80
3678;DHT22;1855;50.934;6.958;2023-06-04T16:00:36;31.40;22.90
3678;DHT22;1855;50.934;6.958;2023-06-04T16:03:03;31.90;22.30
3678;DHT22;1855;50.934;6.958;2023-06-04T16:05:30;32.10;21.40